Time;durP1;ratioP1;P1;durP2;ratioP2;P2;SDS_P1;SDS_P2;PMS_P1;PMS_P2;Temp;Humidity;BMP_temperature;BMP_pressure;BME280_temperature;BME280_humidity;BME280_pressure;Samples;Min_cycle;Max_cycle;Signal;HPM_P1;HPM_P2
2021/03/28 00:00:22;;;;;;;2.47;0.57;;;28.90;51.10;;;;;;5053499;28;20447;-68
2021/03/28 00:02:56;;;;;;;2.03;0.82;;;29.20;52.00;;;;;;5052247;28;20466;-69
2021/03/28 00:05:24;;;;;;;2.33;0.65;;;28.70;49.20;;;;;;5050246;28;20032;-69
2021/03/28 00:07:55;;;;;;;2.20;0.70;;;28.70;51.70;;;;;;5052653;28;20059;-71
2021/03/28 00:10:38;;;;;;;2.00;0.63;;;28.60;49.90;;;;;;5047173;28;20037;-70
2021/03/28 00:13:21;;;;;;;2.17;0.57;;;28.70;50.30;;;;;;5052827;28;20024;-71
2021/03/28 00:16:01;;;;;;;7.07;1.15;;;28.40;49.00;;;;;;5048734;28;20039;-69
2021/03/28 00:18:54;;;;;;;2.30;0.70;;;28.90;50.70;;;;;;5048695;28;20044;-70
2021/03/28 00:21:32;;;;;;;2.30;0.85;;;29.20;49.70;;;;;;5047549;28;20043;-71
2021/03/28 00:24:27;;;;;;;2.40;0.60;;;30.20;49.50;;;;;;5049670;28;20094;-71
2021/03/28 00:27:13;;;;;;;5.35;0.70;;;30.10;50.80;;;;;;5054936;28;20040;-69
2021/03/28 00:30:07;;;;;;;3.45;1.05;;;30.10;50.10;;;;;;5053309;28;20072;-71
2021/03/28 00:32:45;;;;;;;2.05;0.55;;;30.20;49.30;;;;;;5054939;28;20047;-70
2021/03/28 00:35:18;;;;;;;2.80;0.80;;;30.40;47.80;;;;;;5057947;28;20044;-71
2021/03/28 00:38:00;;;;;;;1.02;0.45;;;30.80;48.50;;;;;;5066506;28;20092;-73
2021/03/28 00:40:30;;;;;;;2.92;0.80;;;31.30;47.80;;;;;;5055129;28;20119;-71
2021/03/28 00:43:20;;;;;;;2.38;0.52;;;31.40;44.10;;;;;;5055970;28;20166;-72
2021/03/28 00:45:56;;;;;;;2.63;0.55;;;31.60;45.30;;;;;;5053218;28;20037;-71
2021/03/28 00:48:29;;;;;;;2.25;0.68;;;31.70;44.30;;;;;;5065263;28;20086;-71
2021/03/28 00:50:59;;;;;;;4.47;0.63;;;31.60;44.20;;;;;;5052817;28;20158;-71
2021/03/28 00:53:44;;;;;;;4.75;1.20;;;31.40;44.70;;;;;;5053480;28;20100;-72
2021/03/28 00:56:35;;;;;;;3.63;1.08;;;31.50;44.80;;;;;;5057450;28;20032;-71
2021/03/28 00:59:15;;;;;;;3.25;0.93;;;31.20;45.00;;;;;;5038198;28;20124;-69
2021/03/28 01:02:05;;;;;;;3.05;0.65;;;31.30;44.00;;;;;;5055884;28;20013;-69
2021/03/28 01:04:44;;;;;;;4.75;0.63;;;31.80;45.10;;;;;;5049672;28;20938;-71
2021/03/28 01:07:17;;;;;;;3.95;0.82;;;32.10;43.20;;;;;;5051770;28;20106;-71
2021/03/28 01:10:12;;;;;;;2.58;0.60;;;32.30;42.00;;;;;;5054656;28;20025;-69
2021/03/28 01:13:16;;;;;;;4.00;0.75;;;32.20;40.80;;;;;;5053655;28;20359;-71
2021/03/28 01:16:19;;;;;;;2.40;0.60;;;31.40;41.40;;;;;;5050754;28;20032;-71
2021/03/28 01:18:58;;;;;;;1.10;0.50;;;31.90;42.70;;;;;;5055230;28;20497;-69
2021/03/28 01:21:45;;;;;;;2.92;0.40;;;31.90;40.40;;;;;;5055403;28;20479;-70
2021/03/28 01:24:22;;;;;;;3.78;0.57;;;31.50;38.40;;;;;;5054436;28;20119;-70
2021/03/28 01:27:10;;;;;;;1.98;0.57;;;31.70;40.30;;;;;;5058732;28;20500;-70
2021/03/28 01:29:52;;;;;;;2.05;0.38;;;31.90;39.30;;;;;;5058299;28;20111;-70
2021/03/28 01:32:51;;;;;;;1.42;0.77;;;32.00;38.40;;;;;;5050728;28;20031;-70
2021/03/28 01:35:32;;;;;;;1.27;0.32;;;32.40;38.40;;;;;;5047678;28;20041;-69
2021/03/28 01:38:19;;;;;;;1.20;0.30;;;32.30;38.10;;;;;;5056409;28;20038;-69
2021/03/28 01:40:58;;;;;;;3.08;0.73;;;32.40;39.20;;;;;;5051263;28;20020;-70
2021/03/28 01:43:34;;;;;;;0.50;0.20;;;32.60;37.50;;;;;;5055365;28;20050;-69
2021/03/28 01:46:40;;;;;;;0.80;0.50;;;31.90;34.50;;;;;;5054471;28;20063;-70
2021/03/28 01:49:12;;;;;;;2.13;0.52;;;31.10;36.00;;;;;;4946937;28;20035;-70
2021/03/28 01:51:58;;;;;;;1.67;0.30;;;30.70;38.40;;;;;;4943580;28;20058;-69
2021/03/28 01:54:46;;;;;;;1.23;0.47;;;31.30;40.00;;;;;;5003984;28;20037;-70
2021/03/28 01:57:26;;;;;;;2.97;0.38;;;31.50;38.50;;;;;;5054964;28;20115;-70
2021/03/28 02:00:08;;;;;;;3.40;0.60;;;31.70;36.90;;;;;;5049512;28;20016;-70
2021/03/28 02:02:53;;;;;;;4.63;0.70;;;32.00;38.60;;;;;;5051216;28;20112;-70
2021/03/28 02:05:41;;;;;;;1.77;0.40;;;32.10;37.70;;;;;;5054303;28;20326;-69
2021/03/28 02:08:42;;;;;;;1.30;0.35;;;32.10;38.80;;;;;;5052562;28;20044;-69
2021/03/28 02:11:15;;;;;;;4.60;0.80;;;32.20;37.60;;;;;;5056700;28;20108;-70
2021/03/28 02:14:27;;;;;;;1.35;0.35;;;31.60;39.30;;;;;;5052011;28;20044;-70
2021/03/28 02:17:16;;;;;;;3.72;0.65;;;31.00;34.60;;;;;;4995875;28;20135;-70
2021/03/28 02:20:08;;;;;;;1.35;0.35;;;31.00;35.70;;;;;;5054001;28;20107;-69
2021/03/28 02:23:02;;;;;;;2.15;0.40;;;31.40;38.70;;;;;;5051277;28;20106;-70
2021/03/28 02:25:51;;;;;;;3.30;0.70;;;31.70;37.60;;;;;;5054711;28;20107;-72
2021/03/28 02:28:46;;;;;;;2.33;0.47;;;32.60;38.70;;;;;;5054053;28;20043;-72
2021/03/28 02:31:33;;;;;;;2.40;0.22;;;33.30;38.60;;;;;;5070064;28;20039;-71
2021/03/28 02:34:48;;;;;;;3.30;0.40;;;33.70;36.30;;;;;;5034271;28;20035;-70
2021/03/28 02:37:38;;;;;;;2.75;0.75;;;33.50;33.30;;;;;;5044137;28;20040;-71
2021/03/28 02:40:26;;;;;;;2.88;0.30;;;31.90;34.50;;;;;;5071218;28;20036;-71
2021/03/28 02:43:13;;;;;;;2.65;0.30;;;31.20;38.10;;;;;;5062295;28;20036;-70
2021/03/28 02:45:47;;;;;;;2.83;0.65;;;31.40;39.50;;;;;;5039382;28;20041;-70
2021/03/28 02:48:15;;;;;;;2.83;0.47;;;32.00;36.90;;;;;;5070683;28;20028;-71
2021/03/28 02:51:09;;;;;;;2.10;0.95;;;32.20;35.70;;;;;;5073587;28;20103;-67
2021/03/28 02:54:17;;;;;;;2.00;0.38;;;32.90;37.00;;;;;;5071727;28;20429;-68
2021/03/28 02:56:57;;;;;;;1.30;0.30;;;33.40;34.20;;;;;;5069225;28;20172;-68
2021/03/28 02:59:57;;;;;;;3.22;0.38;;;33.50;34.90;;;;;;5073839;28;20030;-68
2021/03/28 03:03:14;;;;;;;4.63;0.40;;;33.80;34.80;;;;;;5070196;28;20438;-68
2021/03/28 03:05:56;;;;;;;1.45;0.32;;;33.60;33.70;;;;;;5047293;28;20502;-69
2021/03/28 03:08:31;;;;;;;1.45;0.20;;;33.60;33.10;;;;;;5070225;28;20032;-68
2021/03/28 03:10:59;;;;;;;2.45;0.30;;;33.40;35.60;;;;;;5036832;28;20024;-68
2021/03/28 03:13:41;;;;;;;1.92;0.40;;;33.30;32.70;;;;;;5065169;28;20024;-68
2021/03/28 03:16:20;;;;;;;2.53;0.68;;;32.70;33.40;;;;;;5071415;28;20029;-69
2021/03/28 03:19:05;;;;;;;2.72;1.05;;;32.80;36.00;;;;;;5072062;28;20085;-68
2021/03/28 03:21:50;;;;;;;;;;;33.20;35.80;;;;;;5071777;28;20038;-69
2021/03/28 03:24:38;;;;;;;1.00;0.30;;;33.30;34.60;;;;;;5073615;28;19912;-71
2021/03/28 03:27:42;;;;;;;2.65;0.28;;;33.60;36.80;;;;;;5067334;28;20036;-70
2021/03/28 03:30:33;;;;;;;2.05;0.50;;;33.40;32.00;;;;;;5070007;28;20043;-68
2021/03/28 03:33:12;;;;;;;1.80;0.30;;;32.40;33.00;;;;;;5077314;28;20147;-70
2021/03/28 03:36:09;;;;;;;1.33;0.45;;;32.10;35.30;;;;;;5068981;28;20105;-71
2021/03/28 03:38:47;;;;;;;2.58;0.63;;;32.20;36.20;;;;;;5069371;28;20040;-69
2021/03/28 03:41:36;;;;;;;0.98;0.30;;;32.60;36.20;;;;;;5074102;28;20046;-70
2021/03/28 03:44:24;;;;;;;1.55;0.43;;;32.90;36.90;;;;;;5077003;28;20327;-71
2021/03/28 03:46:54;;;;;;;3.08;0.32;;;32.90;35.80;;;;;;5077761;28;20111;-71
2021/03/28 03:49:44;;;;;;;1.25;0.30;;;32.80;34.30;;;;;;5084788;28;20021;-69
2021/03/28 03:52:24;;;;;;;2.40;0.30;;;32.80;32.90;;;;;;5062337;28;20032;-70
2021/03/28 03:55:16;;;;;;;1.15;0.40;;;32.60;34.10;;;;;;5069895;28;20051;-71
2021/03/28 03:57:55;;;;;;;1.35;0.50;;;32.80;34.80;;;;;;5072253;28;20077;-69
2021/03/28 04:00:33;;;;;;;1.95;0.20;;;32.70;34.50;;;;;;5073320;28;20085;-71
2021/03/28 04:03:19;;;;;;;2.10;0.57;;;32.70;34.00;;;;;;5069436;28;20028;-67
2021/03/28 04:06:12;;;;;;;2.40;0.57;;;32.70;35.20;;;;;;5075325;28;20033;-68
2021/03/28 04:09:13;;;;;;;1.50;0.50;;;32.60;34.80;;;;;;5082925;28;20339;-69
2021/03/28 04:12:04;;;;;;;1.73;0.30;;;33.10;36.00;;;;;;5078569;28;20454;-72
2021/03/28 04:15:08;;;;;;;2.47;0.63;;;33.10;34.70;;;;;;5074807;28;20035;-68
2021/03/28 04:17:51;;;;;;;1.63;0.40;;;33.10;35.20;;;;;;5076529;28;20028;-70
2021/03/28 04:20:39;;;;;;;2.95;0.25;;;32.70;33.20;;;;;;5078516;28;20052;-69
2021/03/28 04:23:25;;;;;;;1.27;0.22;;;32.80;33.50;;;;;;5075473;28;20026;-71
2021/03/28 04:26:01;;;;;;;;;;;32.60;34.20;;;;;;5072190;28;20140;-69
2021/03/28 04:28:43;;;;;;;2.95;0.35;;;32.30;33.50;;;;;;5076340;28;20055;-70
2021/03/28 04:31:41;;;;;;;1.33;0.55;;;32.00;34.70;;;;;;5055852;28;20147;-70
2021/03/28 04:34:24;;;;;;;2.25;0.40;;;32.10;34.70;;;;;;5087246;28;20032;-71
2021/03/28 04:37:19;;;;;;;2.08;0.30;;;31.70;34.50;;;;;;5090049;28;20101;-70
2021/03/28 04:40:11;;;;;;;3.30;0.60;;;31.70;35.50;;;;;;5088634;28;20054;-71
2021/03/28 04:43:06;;;;;;;1.98;0.82;;;32.10;35.80;;;;;;5053176;28;20033;-69
2021/03/28 04:45:58;;;;;;;2.83;0.47;;;32.20;34.90;;;;;;5087233;28;20035;-71
2021/03/28 04:48:51;;;;;;;4.75;0.50;;;32.10;36.80;;;;;;5089344;28;20029;-70
2021/03/28 04:51:36;;;;;;;1.15;0.50;;;32.10;35.60;;;;;;5088436;28;20522;-71
2021/03/28 04:54:48;;;;;;;2.53;0.60;;;32.10;35.30;;;;;;5084989;28;20461;-71
2021/03/28 04:57:36;;;;;;;4.22;0.93;;;31.90;35.10;;;;;;5085037;28;20032;-71
2021/03/28 05:00:12;;;;;;;1.20;0.40;;;31.80;38.40;;;;;;5070942;28;20477;-70
2021/03/28 05:02:48;;;;;;;3.28;0.75;;;31.60;36.30;;;;;;5089664;28;20028;-70
2021/03/28 05:05:49;;;;;;;4.53;0.85;;;31.60;35.00;;;;;;5089052;28;20070;-71
2021/03/28 05:08:35;;;;;;;2.20;0.30;;;31.50;35.80;;;;;;5088144;28;20048;-71
2021/03/28 05:11:26;;;;;;;2.42;1.50;;;31.60;36.60;;;;;;5079280;28;20036;-71
2021/03/28 05:14:40;;;;;;;3.22;0.60;;;31.50;34.80;;;;;;5084144;28;20146;-70
2021/03/28 05:17:22;;;;;;;2.42;0.68;;;31.20;35.90;;;;;;5080512;28;20031;-70
2021/03/28 05:20:21;;;;;;;2.97;0.30;;;31.10;34.90;;;;;;5076408;28;20103;-71
2021/03/28 05:23:15;;;;;;;2.63;1.10;;;30.70;35.00;;;;;;5082302;28;20025;-71
2021/03/28 05:25:49;;;;;;;3.22;0.82;;;29.70;35.40;;;;;;5087331;28;20048;-70
2021/03/28 05:28:44;;;;;;;3.00;1.63;;;29.10;37.30;;;;;;5086802;28;20040;-71
2021/03/28 05:31:35;;;;;;;1.20;0.52;;;29.10;37.10;;;;;;5085945;28;20453;-71
2021/03/28 05:34:29;;;;;;;1.55;0.50;;;29.40;36.40;;;;;;5083242;28;20077;-70
2021/03/28 05:37:17;;;;;;;1.88;0.63;;;29.20;37.10;;;;;;5077463;28;20101;-70
2021/03/28 05:39:54;;;;;;;3.90;1.00;;;29.50;37.60;;;;;;5061767;28;20032;-72
2021/03/28 05:42:39;;;;;;;2.67;0.90;;;29.90;37.60;;;;;;5080865;28;20382;-70
2021/03/28 05:45:30;;;;;;;1.67;0.50;;;30.10;36.40;;;;;;5072659;28;20040;-71
2021/03/28 05:48:10;;;;;;;1.85;0.38;;;30.00;36.70;;;;;;5084842;28;20101;-71
2021/03/28 05:51:01;;;;;;;1.40;0.70;;;30.10;35.90;;;;;;5082348;28;20036;-71
2021/03/28 05:53:43;;;;;;;3.10;0.60;;;29.80;36.90;;;;;;5087021;28;20256;-72
2021/03/28 05:56:25;;;;;;;2.65;0.93;;;29.70;40.00;;;;;;5082152;28;20426;-70
2021/03/28 05:58:59;;;;;;;1.70;0.50;;;29.40;41.90;;;;;;5075014;28;20688;-71
2021/03/28 06:01:47;;;;;;;3.83;0.98;;;28.40;45.40;;;;;;5084372;28;20035;-70
2021/03/28 06:04:32;;;;;;;2.63;0.52;;;27.50;48.30;;;;;;5077828;28;20074;-71
2021/03/28 06:07:19;;;;;;;2.08;0.82;;;27.10;49.20;;;;;;5077995;28;20050;-70
2021/03/28 06:10:11;;;;;;;6.10;0.85;;;27.00;49.80;;;;;;5074956;28;20020;-70
2021/03/28 06:12:59;;;;;;;1.05;0.45;;;27.10;50.60;;;;;;5077965;28;20671;-70
2021/03/28 06:15:53;;;;;;;3.25;0.70;;;27.10;50.20;;;;;;5077144;28;20036;-69
2021/03/28 06:18:29;;;;;;;2.10;0.43;;;26.70;50.70;;;;;;5085185;28;20107;-69
2021/03/28 06:21:24;;;;;;;2.85;0.55;;;26.40;51.60;;;;;;5085082;28;20497;-68
2021/03/28 06:24:07;;;;;;;3.70;0.95;;;26.10;51.70;;;;;;5063485;28;20028;-71
2021/03/28 06:26:37;;;;;;;2.95;1.13;;;25.90;52.30;;;;;;5080344;28;20197;-70
2021/03/28 06:29:13;;;;;;;3.53;0.90;;;25.90;52.20;;;;;;5084452;28;20027;-70
2021/03/28 06:32:08;;;;;;;5.03;0.93;;;25.90;52.10;;;;;;5106566;28;20102;-70
2021/03/28 06:35:21;;;;;;;5.50;1.10;;;26.00;52.20;;;;;;5106939;28;20028;-69
2021/03/28 06:38:22;;;;;;;4.18;0.85;;;26.10;51.80;;;;;;5094397;28;20122;-69
2021/03/28 06:41:11;;;;;;;3.10;0.73;;;26.10;51.70;;;;;;5017596;28;20043;-69
2021/03/28 06:44:21;;;;;;;4.95;0.77;;;26.10;52.00;;;;;;5095023;27;20025;-68
2021/03/28 06:47:09;;;;;;;6.00;0.93;;;26.20;51.90;;;;;;5092268;28;20035;-71
2021/03/28 06:49:55;;;;;;;2.53;0.50;;;26.20;51.30;;;;;;5093677;27;20019;-69
2021/03/28 06:52:25;;;;;;;;;;;26.10;51.10;;;;;;5090945;27;20028;-70
2021/03/28 06:55:37;;;;;;;2.70;1.00;;;25.90;51.70;;;;;;5095217;28;19920;-70
2021/03/28 06:58:25;;;;;;;1.63;0.52;;;25.70;52.10;;;;;;5048457;28;20047;-70
2021/03/28 07:01:29;;;;;;;5.00;0.50;;;25.40;52.80;;;;;;5093304;28;20135;-69
2021/03/28 07:04:05;;;;;;;3.80;0.47;;;25.00;53.40;;;;;;5093732;28;20441;-67
2021/03/28 07:06:35;;;;;;;4.05;0.50;;;24.90;53.80;;;;;;5093256;28;20064;-69
2021/03/28 07:09:27;;;;;;;2.30;1.15;;;24.80;53.70;;;;;;5091360;28;20028;-68
2021/03/28 07:11:54;;;;;;;3.72;0.73;;;24.70;54.40;;;;;;5095289;28;20090;-67
2021/03/28 07:14:55;;;;;;;3.30;1.00;;;24.70;54.60;;;;;;5091245;28;20126;-68
2021/03/28 07:18:03;;;;;;;2.88;0.70;;;24.60;54.80;;;;;;5091409;27;20137;-69
2021/03/28 07:21:08;;;;;;;2.20;0.88;;;24.70;54.80;;;;;;5092004;27;20024;-69
2021/03/28 07:23:41;;;;;;;3.42;1.08;;;24.60;55.30;;;;;;4998424;28;20400;-69
2021/03/28 07:26:34;;;;;;;2.78;1.13;;;24.60;54.90;;;;;;5084574;28;20688;-68
2021/03/28 07:29:37;;;;;;;4.40;1.08;;;24.50;54.50;;;;;;5096554;28;20516;-69
2021/03/28 07:32:11;;;;;;;4.07;0.73;;;24.40;54.20;;;;;;5092734;28;20027;-70
2021/03/28 07:34:59;;;;;;;4.15;0.68;;;24.30;54.00;;;;;;5093191;28;20040;-67
2021/03/28 07:37:44;;;;;;;2.75;0.70;;;24.30;54.40;;;;;;5096129;28;20036;-69
2021/03/28 07:40:58;;;;;;;2.45;0.50;;;24.30;54.20;;;;;;5095693;28;20036;-68
2021/03/28 07:43:54;;;;;;;3.47;0.38;;;24.30;54.20;;;;;;5097650;27;20489;-69
2021/03/28 07:46:44;;;;;;;2.53;0.40;;;24.20;54.00;;;;;;5097427;27;20178;-68
2021/03/28 07:49:30;;;;;;;2.70;0.80;;;24.10;54.30;;;;;;5101777;28;20488;-69
2021/03/28 07:52:22;;;;;;;4.93;0.50;;;24.00;54.60;;;;;;5074730;28;20076;-69
2021/03/28 07:54:57;;;;;;;1.88;0.60;;;23.90;54.90;;;;;;5095734;28;20028;-70
2021/03/28 07:57:43;;;;;;;8.02;1.05;;;23.90;54.80;;;;;;5096858;27;20461;-70
2021/03/28 08:00:28;;;;;;;3.90;0.80;;;23.80;55.30;;;;;;5098838;27;20032;-70
2021/03/28 08:03:20;;;;;;;3.95;0.50;;;23.70;55.40;;;;;;5097792;28;20122;-69
2021/03/28 08:06:11;;;;;;;2.13;0.40;;;23.70;55.40;;;;;;5098525;28;20146;-69
2021/03/28 08:08:49;;;;;;;1.77;0.60;;;23.70;55.30;;;;;;5093250;28;20498;-69
2021/03/28 08:11:45;;;;;;;2.05;0.85;;;23.60;55.70;;;;;;5099038;28;20437;-69
2021/03/28 08:14:47;;;;;;;;;;;23.60;55.60;;;;;;5078222;28;20108;-69
2021/03/28 08:17:33;;;;;;;1.52;0.73;;;23.50;57.00;;;;;;5032442;28;19955;-68
2021/03/28 08:20:29;;;;;;;4.45;0.50;;;23.40;57.80;;;;;;5092502;28;20028;-67
2021/03/28 08:23:14;;;;;;;4.90;1.53;;;23.40;58.90;;;;;;5098125;28;20041;-69
2021/03/28 08:26:12;;;;;;;2.83;0.60;;;23.30;60.00;;;;;;5099322;28;20742;-68
2021/03/28 08:28:58;;;;;;;4.15;0.82;;;23.40;60.50;;;;;;5098080;28;20115;-69
2021/03/28 08:31:57;;;;;;;3.10;0.60;;;23.20;62.20;;;;;;5097623;28;20035;-68
2021/03/28 08:34:49;;;;;;;2.92;1.00;;;23.10;63.20;;;;;;5080840;28;20101;-69
2021/03/28 08:37:34;;;;;;;5.75;0.85;;;23.00;64.00;;;;;;5105806;27;20027;-69
2021/03/28 08:40:38;;;;;;;5.82;1.02;;;23.00;64.80;;;;;;5108656;28;20027;-68
2021/03/28 08:43:33;;;;;;;6.03;1.10;;;23.00;65.10;;;;;;5111792;28;20411;-69
2021/03/28 08:46:18;;;;;;;4.95;1.23;;;23.00;65.30;;;;;;5108595;28;20422;-69
2021/03/28 08:48:51;;;;;;;5.20;1.57;;;23.00;65.80;;;;;;5105510;28;20350;-69
2021/03/28 08:51:19;;;;;;;7.93;0.70;;;23.00;66.30;;;;;;5101118;28;20722;-69
2021/03/28 08:53:58;;;;;;;3.40;0.55;;;22.90;66.70;;;;;;5102072;28;20032;-67
2021/03/28 08:57:02;;;;;;;3.22;0.80;;;22.80;67.60;;;;;;5094907;28;20019;-66
2021/03/28 08:59:52;;;;;;;3.10;1.17;;;22.70;68.60;;;;;;5098540;28;20036;-67
2021/03/28 09:02:31;;;;;;;4.65;0.50;;;22.60;69.10;;;;;;5095292;27;20028;-68
2021/03/28 09:05:05;;;;;;;6.05;0.70;;;22.60;68.30;;;;;;5099850;28;20164;-69
2021/03/28 09:07:35;;;;;;;2.70;1.23;;;22.60;69.10;;;;;;5078850;28;20047;-68
2021/03/28 09:10:31;;;;;;;3.38;0.60;;;22.50;70.00;;;;;;5104554;27;20450;-68
2021/03/28 09:13:37;;;;;;;8.95;4.30;;;22.40;70.50;;;;;;5096430;28;20142;-69
2021/03/28 09:16:49;;;;;;;14.57;9.13;;;22.40;70.90;;;;;;5107595;28;20050;-69
2021/03/28 09:19:18;;;;;;;10.68;7.22;;;22.30;72.10;;;;;;5082462;28;20034;-67
2021/03/28 09:21:52;;;;;;;9.90;5.35;;;22.20;72.40;;;;;;5100188;28;20032;-68
2021/03/28 09:24:41;;;;;;;8.90;5.40;;;22.00;72.60;;;;;;5093186;28;20032;-68
2021/03/28 09:27:14;;;;;;;5.85;2.58;;;22.00;74.20;;;;;;5096567;28;20067;-68
2021/03/28 09:29:59;;;;;;;6.93;1.98;;;21.90;73.60;;;;;;5076708;28;20374;-68
2021/03/28 09:32:48;;;;;;;4.18;1.48;;;21.90;74.00;;;;;;5098275;28;20352;-68
2021/03/28 09:35:36;;;;;;;5.15;1.40;;;21.90;74.90;;;;;;5094305;28;20034;-69
2021/03/28 09:38:12;;;;;;;4.65;1.50;;;21.80;74.70;;;;;;5098151;28;20438;-70
2021/03/28 09:41:14;;;;;;;7.25;2.03;;;21.80;75.00;;;;;;5099626;27;20016;-69
2021/03/28 09:44:00;;;;;;;5.20;1.73;;;21.80;75.00;;;;;;5101240;28;20035;-69
2021/03/28 09:46:46;;;;;;;3.60;1.17;;;21.80;75.90;;;;;;5104987;27;20047;-69
2021/03/28 09:49:31;;;;;;;5.28;1.80;;;21.80;75.50;;;;;;5106656;28;20346;-69
2021/03/28 09:52:21;;;;;;;2.50;1.08;;;21.70;75.80;;;;;;5104352;27;20534;-69
2021/03/28 09:55:15;;;;;;;3.70;0.80;;;21.70;75.70;;;;;;5104703;27;20489;-74
2021/03/28 09:58:07;;;;;;;4.00;0.90;;;21.70;75.90;;;;;;5105696;28;20020;-72
2021/03/28 10:01:03;;;;;;;4.10;0.98;;;21.70;76.00;;;;;;5099643;27;20118;-68
2021/03/28 10:04:01;;;;;;;6.57;1.55;;;21.70;76.20;;;;;;5059127;28;20389;-72
2021/03/28 10:06:30;;;;;;;3.88;1.13;;;21.60;76.40;;;;;;5095989;28;20118;-70
2021/03/28 10:09:12;;;;;;;3.38;1.10;;;21.50;76.50;;;;;;5094511;28;20119;-72
2021/03/28 10:11:52;;;;;;;4.55;0.70;;;21.50;76.80;;;;;;5106396;27;20028;-72
2021/03/28 10:14:31;;;;;;;4.72;1.13;;;21.50;76.50;;;;;;5102071;28;20057;-72
2021/03/28 10:17:10;;;;;;;3.92;1.00;;;21.40;76.60;;;;;;5105261;28;20412;-71
2021/03/28 10:19:43;;;;;;;2.55;1.23;;;21.40;77.10;;;;;;5093528;28;20032;-73
2021/03/28 10:22:43;;;;;;;5.07;1.15;;;21.30;77.10;;;;;;5092604;27;20101;-73
2021/03/28 10:25:26;;;;;;;4.32;1.08;;;21.30;77.20;;;;;;5078531;27;20027;-72
2021/03/28 10:28:11;;;;;;;3.33;1.10;;;21.20;77.80;;;;;;5094838;28;20039;-71
2021/03/28 10:31:03;;;;;;;3.33;1.33;;;21.20;77.60;;;;;;5094722;28;20454;-71
2021/03/28 10:33:37;;;;;;;4.85;1.05;;;21.20;77.40;;;;;;5096659;28;20082;-70
2021/03/28 10:36:13;;;;;;;3.87;0.77;;;21.20;77.50;;;;;;5100361;28;20085;-71
2021/03/28 10:39:03;;;;;;;3.45;1.02;;;21.20;78.20;;;;;;5101543;28;20061;-69
2021/03/28 10:41:35;;;;;;;7.68;1.65;;;21.10;78.10;;;;;;5095415;28;20032;-71
2021/03/28 10:44:08;;;;;;;2.97;0.98;;;21.10;77.70;;;;;;5095826;28;20035;-71
2021/03/28 10:47:03;;;;;;;3.03;0.60;;;21.00;77.10;;;;;;5097717;28;20042;-72
2021/03/28 10:49:48;;;;;;;3.50;0.60;;;21.00;76.80;;;;;;5093280;28;20024;-72
2021/03/28 10:52:15;;;;;;;3.72;0.65;;;20.90;76.60;;;;;;5095781;28;20027;-70
2021/03/28 10:55:07;;;;;;;2.70;1.70;;;20.90;76.60;;;;;;5100589;28;20127;-74
2021/03/28 10:57:55;;;;;;;2.83;0.50;;;20.90;76.80;;;;;;5091252;28;20034;-71
2021/03/28 11:00:52;;;;;;;3.45;1.20;;;20.90;76.80;;;;;;5095383;28;20028;-72
2021/03/28 11:03:51;;;;;;;3.10;0.93;;;20.80;76.00;;;;;;5096408;27;20015;-72
2021/03/28 11:06:35;;;;;;;2.97;0.95;;;20.80;76.70;;;;;;5101094;28;20097;-72
2021/03/28 11:09:30;;;;;;;2.15;0.70;;;20.80;76.90;;;;;;5095487;28;20591;-72
2021/03/28 11:12:15;;;;;;;5.18;1.20;;;20.80;76.80;;;;;;5102142;27;20032;-72
2021/03/28 11:14:48;;;;;;;3.30;0.93;;;20.80;77.00;;;;;;5108963;28;20084;-71
2021/03/28 11:17:39;;;;;;;3.78;0.77;;;20.70;77.40;;;;;;5094658;28;20087;-71
2021/03/28 11:20:40;;;;;;;6.30;1.33;;;20.70;77.60;;;;;;5074294;28;20509;-72
2021/03/28 11:23:44;;;;;;;3.13;1.13;;;20.70;77.50;;;;;;5092874;28;20027;-70
2021/03/28 11:26:51;;;;;;;6.47;1.55;;;20.70;77.80;;;;;;5069814;28;21608;-70
2021/03/28 11:29:46;;;;;;;4.07;1.23;;;20.60;78.00;;;;;;5094236;28;20511;-71
2021/03/28 11:32:43;;;;;;;4.38;0.95;;;20.50;78.40;;;;;;5103323;28;20030;-70
2021/03/28 11:35:26;;;;;;;4.22;1.63;;;20.50;78.70;;;;;;5102953;28;20096;-73
2021/03/28 11:38:15;;;;;;;4.25;0.88;;;20.50;78.40;;;;;;5100952;28;20024;-74
2021/03/28 11:40:45;;;;;;;3.85;1.15;;;20.50;79.50;;;;;;5091181;28;20023;-74
2021/03/28 11:43:13;;;;;;;5.20;1.08;;;20.50;79.10;;;;;;5106065;28;20050;-74
2021/03/28 11:45:47;;;;;;;2.15;0.85;;;20.40;79.00;;;;;;5099462;28;20464;-73
2021/03/28 11:48:38;;;;;;;3.65;0.90;;;20.40;79.10;;;;;;5103404;28;20069;-73
2021/03/28 11:51:26;;;;;;;2.55;0.88;;;20.30;79.10;;;;;;5105446;28;20035;-72
2021/03/28 11:54:10;;;;;;;3.60;0.98;;;20.30;79.50;;;;;;5106582;28;20020;-72
2021/03/28 11:57:14;;;;;;;3.08;1.08;;;20.40;79.50;;;;;;5107534;28;20028;-72
2021/03/28 11:59:51;;;;;;;6.25;1.02;;;20.30;79.70;;;;;;5099647;28;20136;-71
2021/03/28 12:02:28;;;;;;;2.88;0.52;;;20.30;79.20;;;;;;5102072;28;20108;-72
2021/03/28 12:04:58;;;;;;;2.60;0.90;;;20.20;79.30;;;;;;5103568;28;20027;-72
2021/03/28 12:07:35;;;;;;;3.35;1.27;;;20.20;79.60;;;;;;5105900;28;20122;-72
2021/03/28 12:10:03;;;;;;;3.53;0.95;;;20.30;79.60;;;;;;5101786;28;20035;-73
2021/03/28 12:12:45;;;;;;;5.85;1.40;;;20.20;79.80;;;;;;5106476;28;20028;-71
2021/03/28 12:15:43;;;;;;;3.75;0.75;;;20.20;80.20;;;;;;5108003;28;20020;-73
2021/03/28 12:18:28;;;;;;;2.83;0.80;;;20.30;80.40;;;;;;5099259;28;20046;-72
2021/03/28 12:21:02;;;;;;;7.15;1.15;;;20.20;80.50;;;;;;5105003;28;20016;-70
2021/03/28 12:23:44;;;;;;;4.80;1.63;;;20.20;80.50;;;;;;5104857;28;20034;-73
2021/03/28 12:26:22;;;;;;;6.50;1.70;;;20.10;80.80;;;;;;5104121;28;20040;-71
2021/03/28 12:28:58;;;;;;;2.78;0.80;;;20.20;81.30;;;;;;5111370;28;20081;-72
2021/03/28 12:31:41;;;;;;;5.75;0.98;;;20.10;81.00;;;;;;5090862;28;20056;-70
2021/03/28 12:34:27;;;;;;;4.80;0.90;;;20.10;80.70;;;;;;5088227;28;20042;-70
2021/03/28 12:37:00;;;;;;;2.72;1.00;;;20.10;80.20;;;;;;5099457;28;20016;-71
2021/03/28 12:39:52;;;;;;;8.40;1.25;;;20.10;80.30;;;;;;5096445;28;20546;-71
2021/03/28 12:42:34;;;;;;;4.43;1.05;;;20.10;80.10;;;;;;5078541;28;20181;-71
2021/03/28 12:45:08;;;;;;;1.48;0.75;;;20.10;79.70;;;;;;5086028;28;20093;-72
2021/03/28 12:47:50;;;;;;;4.90;1.10;;;20.10;80.10;;;;;;5089161;28;20343;-72
2021/03/28 12:50:18;;;;;;;4.20;1.27;;;19.90;80.60;;;;;;5089903;28;20119;-72
2021/03/28 12:52:52;;;;;;;5.13;1.63;;;19.90;80.90;;;;;;5090105;28;20031;-72
2021/03/28 12:55:32;;;;;;;8.48;1.85;;;20.00;81.60;;;;;;5088320;28;20103;-73
2021/03/28 12:58:09;;;;;;;5.63;1.33;;;20.00;80.80;;;;;;5091934;28;20032;-72
2021/03/28 13:00:56;;;;;;;4.15;1.40;;;19.90;81.00;;;;;;5083266;28;20039;-73
2021/03/28 13:03:36;;;;;;;6.55;1.88;;;19.90;81.40;;;;;;5096902;28;20390;-73
2021/03/28 13:06:04;;;;;;;5.43;0.95;;;19.90;81.80;;;;;;5102028;28;20039;-73
2021/03/28 13:09:00;;;;;;;5.40;1.33;;;19.80;81.80;;;;;;5098763;28;20104;-72
2021/03/28 13:11:43;;;;;;;4.13;1.45;;;19.80;82.30;;;;;;5096114;28;20115;-73
2021/03/28 13:14:44;;;;;;;2.33;0.95;;;19.80;82.10;;;;;;5100623;28;20035;-72
2021/03/28 13:17:30;;;;;;;6.30;0.75;;;19.70;82.20;;;;;;5088781;28;20051;-73
2021/03/28 13:20:15;;;;;;;8.18;0.98;;;19.70;82.30;;;;;;5094104;28;20031;-72
2021/03/28 13:22:45;;;;;;;3.87;0.80;;;19.60;81.60;;;;;;5095269;28;20032;-72
2021/03/28 13:25:18;;;;;;;5.32;1.27;;;19.60;81.80;;;;;;5102105;28;20032;-71
2021/03/28 13:27:59;;;;;;;4.07;1.10;;;19.60;82.20;;;;;;5096838;28;20490;-73
2021/03/28 13:30:47;;;;;;;5.85;0.95;;;19.60;81.70;;;;;;5096095;28;20533;-71
2021/03/28 13:33:20;;;;;;;2.75;0.95;;;19.60;81.30;;;;;;5097498;28;20050;-72
2021/03/28 13:35:53;;;;;;;4.63;1.33;;;19.60;81.60;;;;;;5096444;28;20103;-72
2021/03/28 13:38:26;;;;;;;3.70;1.35;;;19.60;82.00;;;;;;5079603;28;20024;-70
2021/03/28 13:41:04;;;;;;;5.38;1.00;;;19.60;81.50;;;;;;5097861;28;20091;-71
2021/03/28 13:43:38;;;;;;;4.30;0.85;;;19.50;81.60;;;;;;5092108;28;20032;-71
2021/03/28 13:46:17;;;;;;;4.75;1.80;;;19.40;82.20;;;;;;5099109;28;20062;-72
2021/03/28 13:48:48;;;;;;;6.05;1.20;;;19.40;82.70;;;;;;5097501;28;20059;-71
2021/03/28 13:51:22;;;;;;;4.20;0.90;;;19.40;82.90;;;;;;5091593;28;20449;-72
2021/03/28 13:54:06;;;;;;;3.92;1.20;;;19.40;83.10;;;;;;5099476;28;20394;-73
2021/03/28 13:56:33;;;;;;;6.32;1.23;;;19.40;83.20;;;;;;5096429;28;20028;-73
2021/03/28 13:59:09;;;;;;;4.03;1.48;;;19.30;83.60;;;;;;5090208;28;20027;-73
2021/03/28 14:01:35;;;;;;;;;;;19.30;83.70;;;;;;5098811;28;20481;-73
2021/03/28 14:04:38;;;;;;;2.72;0.90;;;19.20;84.00;;;;;;5097749;28;19925;-73
2021/03/28 14:07:17;;;;;;;7.45;1.63;;;19.20;84.30;;;;;;5092308;28;20477;-73
2021/03/28 14:10:05;;;;;;;3.95;1.35;;;19.20;84.50;;;;;;5095555;28;20359;-73
2021/03/28 14:12:56;;;;;;;6.00;1.60;;;19.10;84.40;;;;;;5095158;28;20028;-73
2021/03/28 14:15:35;;;;;;;4.75;0.90;;;19.10;84.70;;;;;;5090346;28;20028;-72
2021/03/28 14:18:12;;;;;;;2.20;0.80;;;19.10;84.20;;;;;;5096861;28;20131;-73
2021/03/28 14:20:46;;;;;;;3.67;0.80;;;19.10;84.00;;;;;;5088086;28;20123;-71
2021/03/28 14:23:20;;;;;;;7.65;1.38;;;19.00;83.70;;;;;;5094512;28;20048;-72